There are multiple Weather-warnings   Click here for more information


Meteo18 Weather Cam more information Meteo18 Weather Cam


warning for Thunderstorms more information blitzortung!


Rain radar more information rain snow radar


Visit our other weather sites:

Template documentation
and downloads

And another site



Weather Underground History page Text

Daily Summary for April 27, 2017 Units:  English    Metric   Both
« Previous Day
Next Day »
Daily Weekly Monthly Yearly Custom
  High: Low: Average:
Temperature: 52 °F 35.6 °F 42.4 °F
Dew Point: 38.1 °F 28.6 °F 33.4 °F
Humidity: 93 % 41 % 72 %
Wind Speed: 15 mph 0 mph 3.5 mph
Wind Gust: 19 mph - -
Wind:- - WSW
Pressure: 30.1 in 30 in -
Precipitation: 0 in    
Historical Graphs
 
 
Tabular Data for April 27, 2017
Time Temperature Dew Point Pressure Wind Wind Speed Wind Gust Humidity Rainfall Rate (Hourly)
00:02 38.8 °F 34.2 °F 30 in WNW 1 mph 5 mph 83 % 0 in
00:07 38.7 °F 34.2 °F 30 in WNW 1 mph 4 mph 84 % 0 in
00:12 38.5 °F 34.2 °F 30 in WNW 1 mph 4 mph 84 % 0 in
00:17 38.3 °F 34 °F 30 in Calm   3 mph 84 % 0 in
00:22 38.1 °F 34 °F 30 in Calm   3 mph 85 % 0 in
00:32 37.9 °F 33.8 °F 30 in Calm   2 mph 85 % 0 in
00:42 37.8 °F 33.6 °F 30 in WNW 1 mph 2 mph 85 % 0 in
00:47 37.6 °F 33.4 °F 30.1 in NW 1 mph 2 mph 85 % 0 in
00:52 37.6 °F 33.8 °F 30 in NNW 1 mph 2 mph 86 % 0 in
00:57 37.6 °F 33.8 °F 30 in Calm   2 mph 86 % 0 in
01:02 37.6 °F 33.8 °F 30.1 in NW 1 mph 2 mph 86 % 0 in
01:12 37.6 °F 34 °F 30 in NW 1 mph 3 mph 87 % 0 in
01:17 37.6 °F 34 °F 30 in Calm   3 mph 87 % 0 in
01:22 37.6 °F 34 °F 30 in NW 3 mph 3 mph 87 % 0 in
01:32 37.6 °F 34 °F 30 in Calm   3 mph 87 % 0 in
01:37 37.6 °F 34 °F 30 in Calm   3 mph 87 % 0 in
01:42 37.8 °F 34.2 °F 30 in Calm   3 mph 87 % 0 in
01:52 37.8 °F 34.2 °F 30 in NNW 2 mph 3 mph 87 % 0 in
02:02 37.9 °F 34.3 °F 30 in NNW 1 mph 5 mph 87 % 0 in
02:12 37.8 °F 34 °F 30 in NNW 2 mph 6 mph 86 % 0 in
02:17 37.8 °F 34 °F 30 in NW 5 mph 6 mph 86 % 0 in
02:22 37.6 °F 33.8 °F 30 in NW 1 mph 6 mph 86 % 0 in
02:32 37.2 °F 33.8 °F 30 in Calm   5 mph 87 % 0 in
02:37 37.2 °F 33.8 °F 30 in Calm   5 mph 87 % 0 in
02:42 37 °F 33.8 °F 30 in Calm   4 mph 88 % 0 in
02:47 37.2 °F 34 °F 30 in Calm   3 mph 88 % 0 in
02:52 37.2 °F 34 °F 30 in Calm   3 mph 88 % 0 in
03:02 37.2 °F 34 °F 30 in West 1 mph 4 mph 88 % 0 in
03:12 36.7 °F 33.4 °F 30 in Calm   3 mph 88 % 0 in
03:17 36.3 °F 33.1 °F 30 in WNW 1 mph 3 mph 88 % 0 in
03:22 36.3 °F 33.4 °F 30 in NW 1 mph 3 mph 89 % 0 in
03:27 36.1 °F 33.3 °F 30 in Calm   3 mph 89 % 0 in
03:32 36.1 °F 33.3 °F 30 in NW 1 mph 2 mph 89 % 0 in
03:42 36 °F 33.3 °F 30 in Calm   4 mph 90 % 0 in
03:52 36.1 °F 33.4 °F 30 in Calm   4 mph 90 % 0 in
03:57 36.1 °F 33.4 °F 30 in NNW 1 mph 4 mph 90 % 0 in
04:02 36.1 °F 33.4 °F 30 in North 2 mph 4 mph 90 % 0 in
04:12 36 °F 33.3 °F 30 in Calm   5 mph 90 % 0 in
04:17 36 °F 33.3 °F 30 in NNW 1 mph 4 mph 90 % 0 in
04:22 36 °F 33.6 °F 30 in North 3 mph 4 mph 91 % 0 in
04:32 36.1 °F 33.8 °F 30 in NNW 1 mph 4 mph 91 % 0 in
04:42 36.1 °F 33.8 °F 30 in Calm   5 mph 91 % 0 in
04:47 36.3 °F 34 °F 30 in NW 1 mph 4 mph 91 % 0 in
04:52 36.5 °F 33.8 °F 30 in NNW 1 mph 4 mph 90 % 0 in
04:57 36.5 °F 33.8 °F 30 in North 1 mph 4 mph 90 % 0 in
05:02 36.3 °F 33.6 °F 30 in NNW 2 mph 5 mph 90 % 0 in
05:12 36.3 °F 34 °F 30 in NW 2 mph 4 mph 91 % 0 in
05:17 36.3 °F 34 °F 30 in Calm   4 mph 91 % 0 in
05:22 36.1 °F 33.8 °F 30 in Calm   4 mph 91 % 0 in
05:32 36.1 °F 33.8 °F 30 in NW 1 mph 2 mph 91 % 0 in
05:42 36 °F 33.6 °F 30 in Calm   2 mph 91 % 0 in
05:47 36 °F 33.6 °F 30 in WNW 1 mph 2 mph 91 % 0 in
05:52 36 °F 33.8 °F 30 in NNW 3 mph 3 mph 92 % 0 in
05:57 36 °F 33.8 °F 30 in NW 1 mph 2 mph 92 % 0 in
06:02 36.1 °F 34 °F 30 in NW 1 mph 4 mph 92 % 0 in
06:12 36.1 °F 34 °F 30 in Calm   4 mph 92 % 0 in
06:17 36.1 °F 34 °F 30.1 in NNW 1 mph 4 mph 92 % 0 in
06:22 36.1 °F 34 °F 30.1 in NNW 1 mph 3 mph 92 % 0 in
06:32 36.3 °F 34.2 °F 30.1 in North 2 mph 3 mph 92 % 0 in
06:37 36.3 °F 34.2 °F 30.1 in Calm   4 mph 92 % 0 in
06:42 36.3 °F 34.2 °F 30.1 in Calm   4 mph 92 % 0 in
06:47 36.1 °F 33.8 °F 30.1 in WNW 1 mph 4 mph 91 % 0 in
06:52 35.8 °F 33.4 °F 30.1 in WNW 1 mph 2 mph 91 % 0 in
07:02 35.8 °F 33.6 °F 30.1 in WNW 1 mph 2 mph 92 % 0 in
07:12 35.6 °F 33.4 °F 30.1 in Calm   3 mph 92 % 0 in
07:17 35.8 °F 34 °F 30.1 in Calm   3 mph 93 % 0 in
07:22 35.8 °F 34 °F 30.1 in Calm   2 mph 93 % 0 in
07:27 36 °F 34.2 °F 30.1 in Calm   2 mph 93 % 0 in
07:32 36.1 °F 34.3 °F 30.1 in NW 2 mph 5 mph 93 % 0 in
07:37 36.3 °F 34.5 °F 30.1 in Calm   5 mph 93 % 0 in
07:42 36.3 °F 34.5 °F 30.1 in NW 1 mph 6 mph 93 % 0 in
07:47 36.5 °F 34.7 °F 30.1 in NW 1 mph 6 mph 93 % 0 in
07:52 36.7 °F 34.9 °F 30.1 in North 3 mph 7 mph 93 % 0 in
07:57 36.9 °F 35.1 °F 30.1 in North 3 mph 7 mph 93 % 0 in
08:02 37 °F 35.2 °F 30.1 in Calm   6 mph 93 % 0 in
08:12 37.4 °F 35.2 °F 30.1 in NNW 3 mph 6 mph 92 % 0 in
08:17 37.6 °F 35.4 °F 30.1 in NNE 2 mph 6 mph 92 % 0 in
08:22 37.8 °F 35.6 °F 30.1 in NNE 1 mph 6 mph 92 % 0 in
08:32 38.3 °F 36 °F 30.1 in NNW 1 mph 6 mph 91 % 0 in
08:42 39.4 °F 36.7 °F 30.1 in NNW 3 mph 6 mph 90 % 0 in
08:52 40.3 °F 36.7 °F 30.1 in North 4 mph 9 mph 87 % 0 in
09:02 39.9 °F 36.1 °F 30.1 in NW 4 mph 11 mph 86 % 0 in
09:12 39.9 °F 36.3 °F 30.1 in NNW 2 mph 8 mph 87 % 0 in
09:17 40.1 °F 36.3 °F 30.1 in North 4 mph 8 mph 86 % 0 in
09:22 39.9 °F 36.1 °F 30.1 in NE 5 mph 8 mph 86 % 0 in
09:32 39.9 °F 36.3 °F 30.1 in NNW 5 mph 8 mph 87 % 0 in
09:42 40.3 °F 36.5 °F 30.1 in North 4 mph 7 mph 86 % 0 in
09:52 40.6 °F 36.9 °F 30.1 in Calm   10 mph 86 % 0 in
10:02 41.2 °F 37 °F 30.1 in Calm   8 mph 85 % 0 in
10:12 41.9 °F 36.9 °F 30.1 in NNE 2 mph 8 mph 82 % 0 in
10:17 42.3 °F 37.2 °F 30.1 in NE 4 mph 8 mph 82 % 0 in
10:22 42.4 °F 36.7 °F 30.1 in North 5 mph 7 mph 80 % 0 in
10:32 42.6 °F 36.9 °F 30.1 in NNW 2 mph 6 mph 80 % 0 in
10:37 43 °F 36.9 °F 30.1 in NNW 4 mph 6 mph 79 % 0 in
10:42 43.2 °F 37 °F 30.1 in NNW 4 mph 6 mph 79 % 0 in
10:47 43.5 °F 37.4 °F 30.1 in West 1 mph 6 mph 79 % 0 in
10:52 44.1 °F 37.4 °F 30.1 in NNE 2 mph 6 mph 77 % 0 in
10:57 44.1 °F 37 °F 30.1 in NW 2 mph 6 mph 76 % 0 in
11:02 44.4 °F 37.4 °F 30.1 in NNW 8 mph 8 mph 76 % 0 in
11:12 45.3 °F 38.1 °F 30.1 in WNW 2 mph 10 mph 76 % 0 in
11:22 45.7 °F 37.9 °F 30.1 in North 3 mph 11 mph 74 % 0 in
11:32 45.7 °F 37.6 °F 30.1 in North 7 mph 14 mph 73 % 0 in
11:37 46 °F 36.9 °F 30.1 in WSW 4 mph 14 mph 70 % 0 in
11:42 46 °F 37.6 °F 30.1 in NNW 10 mph 14 mph 72 % 0 in
11:52 45.7 °F 36.5 °F 30.1 in NE 4 mph 13 mph 70 % 0 in
12:02 45.9 °F 36.3 °F 30.1 in NNE 9 mph 15 mph 69 % 0 in
12:12 46.2 °F 35.4 °F 30.1 in North 6 mph 15 mph 66 % 0 in
12:17 46.2 °F 36.3 °F 30.1 in NNE 3 mph 15 mph 68 % 0 in
12:22 45.9 °F 35.6 °F 30.1 in North 3 mph 15 mph 67 % 0 in
12:32 47.5 °F 35.6 °F 30.1 in NE 10 mph 15 mph 63 % 0 in
12:37 47.8 °F 35.4 °F 30.1 in NNW 7 mph 14 mph 62 % 0 in
12:42 48 °F 34.9 °F 30.1 in North 9 mph 14 mph 60 % 0 in
12:47 48.6 °F 34.5 °F 30.1 in North 2 mph 14 mph 58 % 0 in
12:57 48.9 °F 34.9 °F 30.1 in NNW 8 mph 17 mph 58 % 0 in
13:02 47.7 °F 33.6 °F 30.1 in NNW 11 mph 17 mph 58 % 0 in
13:12 46 °F 34.2 °F 30.1 in NNW 6 mph 18 mph 63 % 0 in
13:17 45.9 °F 32.7 °F 30.1 in NW 4 mph 18 mph 60 % 0 in
13:22 46 °F 32.5 °F 30.1 in WNW 6 mph 16 mph 59 % 0 in
13:32 48 °F 33.1 °F 30.1 in NNW 5 mph 13 mph 56 % 0 in
13:37 48.7 °F 31.8 °F 30.1 in NW 3 mph 13 mph 52 % 0 in
13:42 48.9 °F 32.5 °F 30.1 in North 9 mph 15 mph 53 % 0 in
13:47 49.5 °F 34.9 °F 30.1 in NNW 9 mph 16 mph 57 % 0 in
13:52 49.6 °F 33.6 °F 30.1 in NNW 6 mph 16 mph 54 % 0 in
14:02 48.4 °F 31.6 °F 30.1 in North 7 mph 13 mph 52 % 0 in
14:12 47.8 °F 31.5 °F 30.1 in North 15 mph 15 mph 53 % 0 in
14:17 48.4 °F 32.9 °F 30.1 in NNW 11 mph 19 mph 55 % 0 in
14:22 48.7 °F 31.5 °F 30.1 in WNW 10 mph 19 mph 51 % 0 in
14:32 50.5 °F 33.1 °F 30.1 in NE 6 mph 16 mph 51 % 0 in
14:37 51.4 °F 32.4 °F 30.1 in NW 5 mph 12 mph 48 % 0 in
14:42 51.1 °F 32.5 °F 30.1 in WNW 8 mph 12 mph 49 % 0 in
14:47 50 °F 30.6 °F 30.1 in NE 3 mph 17 mph 47 % 0 in
14:52 49.5 °F 30.6 °F 30.1 in NNW 11 mph 17 mph 48 % 0 in
15:02 50.5 °F 29.5 °F 30.1 in NNW 15 mph 16 mph 44 % 0 in
15:12 49.5 °F 30 °F 30.1 in NNW 7 mph 16 mph 47 % 0 in
15:17 49.5 °F 29.5 °F 30.1 in NNE 2 mph 17 mph 46 % 0 in
15:22 50.7 °F 29.1 °F 30 in WNW 7 mph 16 mph 43 % 0 in
15:27 51.1 °F 30.6 °F 30 in NNW 13 mph 14 mph 45 % 0 in
15:32 50.5 °F 31.1 °F 30 in NNE 15 mph 15 mph 47 % 0 in
15:42 49.5 °F 30 °F 30 in NNW 5 mph 18 mph 47 % 0 in
15:47 50.5 °F 32.5 °F 30 in NNE 4 mph 18 mph 50 % 0 in
15:52 51.3 °F 31.1 °F 30 in North 7 mph 18 mph 46 % 0 in
16:02 51.8 °F 31.1 °F 30 in NNW 11 mph 12 mph 45 % 0 in
16:12 49.8 °F 31.5 °F 30 in NW 11 mph 14 mph 49 % 0 in
16:17 49.5 °F 31.1 °F 30 in NE 10 mph 16 mph 49 % 0 in
16:22 49.3 °F 30.9 °F 30 in NE 12 mph 19 mph 49 % 0 in
16:27 48.7 °F 30.4 °F 30 in NNE 9 mph 19 mph 49 % 0 in
16:32 48.7 °F 29.8 °F 30 in North 7 mph 19 mph 48 % 0 in
16:42 48.7 °F 30.9 °F 30 in NNE 12 mph 18 mph 50 % 0 in
16:52 49.3 °F 31.5 °F 30 in North 6 mph 15 mph 50 % 0 in
16:57 50.2 °F 31.8 °F 30 in NNW 7 mph 13 mph 49 % 0 in
17:02 50.4 °F 29.8 °F 30 in NE 6 mph 13 mph 45 % 0 in
17:12 51.1 °F 31.1 °F 30 in NNE 3 mph 18 mph 46 % 0 in
17:17 50.9 °F 30.9 °F 30 in NNE 3 mph 16 mph 46 % 0 in
17:22 51.3 °F 29.5 °F 30 in NNW 3 mph 16 mph 43 % 0 in
17:27 51.6 °F 29.3 °F 30 in NNE 4 mph 11 mph 42 % 0 in
17:32 52 °F 28.9 °F 30 in NNE 5 mph 10 mph 41 % 0 in
17:42 51.6 °F 29.8 °F 30 in NE 5 mph 12 mph 43 % 0 in
17:52 50.5 °F 30.6 °F 30 in North 11 mph 17 mph 46 % 0 in
17:57 50.2 °F 28.6 °F 30 in NNW 7 mph 17 mph 43 % 0 in
18:02 50 °F 28.9 °F 30 in North 5 mph 17 mph 44 % 0 in
18:12 49.8 °F 29.8 °F 30 in North 7 mph 19 mph 46 % 0 in
18:17 49.8 °F 28.8 °F 30 in NNW 6 mph 12 mph 44 % 0 in
18:22 49.5 °F 31.6 °F 30 in NNE 7 mph 12 mph 50 % 0 in
18:32 48 °F 33.1 °F 30 in West 6 mph 17 mph 56 % 0 in
18:42 47.5 °F 33.1 °F 30 in NNW 8 mph 18 mph 57 % 0 in
18:52 47.8 °F 33.8 °F 30 in WNW 1 mph 16 mph 58 % 0 in
18:57 47.7 °F 32.7 °F 30 in NW 10 mph 16 mph 56 % 0 in
19:02 46.9 °F 32.9 °F 30 in WNW 4 mph 16 mph 58 % 0 in
19:12 46.6 °F 33.8 °F 30 in WNW 4 mph 14 mph 61 % 0 in
19:17 47.1 °F 33.4 °F 30 in North 4 mph 13 mph 59 % 0 in
19:22 47.7 °F 33.6 °F 30 in NW 8 mph 11 mph 58 % 0 in
19:27 47.8 °F 32.9 °F 30 in NW 5 mph 11 mph 56 % 0 in
19:32 48 °F 32.2 °F 30 in NW 5 mph 11 mph 54 % 0 in
19:42 48 °F 32.2 °F 30 in West 7 mph 12 mph 54 % 0 in
19:47 48 °F 32.2 °F 30 in WNW 2 mph 10 mph 54 % 0 in
19:52 48 °F 32.2 °F 30 in WNW 2 mph 10 mph 54 % 0 in
19:57 48 °F 31.3 °F 30.1 in NW 5 mph 9 mph 52 % 0 in
20:02 47.8 °F 30.6 °F 30 in NW 7 mph 11 mph 51 % 0 in
20:12 47.5 °F 30.2 °F 30.1 in NW 3 mph 14 mph 51 % 0 in
20:17 47.3 °F 30 °F 30.1 in NNW 4 mph 13 mph 51 % 0 in
20:22 47.1 °F 29.8 °F 30.1 in North 4 mph 13 mph 51 % 0 in
20:32 46 °F 29.5 °F 30.1 in NNW 9 mph 12 mph 52 % 0 in
20:37 45.7 °F 29.1 °F 30.1 in NW 1 mph 11 mph 52 % 0 in
20:42 45.3 °F 29.1 °F 30.1 in NW 2 mph 9 mph 53 % 0 in
20:47 45.1 °F 29.5 °F 30.1 in NNW 4 mph 9 mph 54 % 0 in
20:57 44.4 °F 31.5 °F 30.1 in North 4 mph 11 mph 60 % 0 in
21:02 44.1 °F 32.4 °F 30.1 in NW 4 mph 12 mph 63 % 0 in
21:12 43 °F 33.1 °F 30.1 in NW 5 mph 12 mph 68 % 0 in
21:17 42.4 °F 33.1 °F 30.1 in WNW 4 mph 9 mph 69 % 0 in
21:22 42.1 °F 33.4 °F 30.1 in NW 1 mph 9 mph 71 % 0 in
21:27 41.7 °F 33.4 °F 30.1 in WNW 2 mph 8 mph 72 % 0 in
21:32 41.4 °F 33.4 °F 30.1 in Calm   8 mph 73 % 0 in
21:42 40.8 °F 33.3 °F 30.1 in West 3 mph 7 mph 74 % 0 in
21:47 40.6 °F 33.3 °F 30.1 in WNW 2 mph 6 mph 75 % 0 in
21:57 40.6 °F 33.3 °F 30.1 in WNW 1 mph 5 mph 75 % 0 in
22:02 40.6 °F 33.3 °F 30.1 in NW 1 mph 5 mph 75 % 0 in
22:07 40.6 °F 33.3 °F 30.1 in Calm   5 mph 75 % 0 in
22:17 40.6 °F 33.6 °F 30.1 in NNW 1 mph 3 mph 76 % 0 in
22:22 40.6 °F 34 °F 30.1 in NW 1 mph 3 mph 77 % 0 in
22:32 40.5 °F 33.8 °F 30.1 in NW 2 mph 3 mph 77 % 0 in
22:37 40.5 °F 33.8 °F 30.1 in NNW 2 mph 4 mph 77 % 0 in
22:42 40.5 °F 33.8 °F 30.1 in WNW 2 mph 5 mph 77 % 0 in
22:47 40.5 °F 33.8 °F 30.1 in NNW 2 mph 6 mph 77 % 0 in
22:52 40.5 °F 33.8 °F 30.1 in WNW 5 mph 6 mph 77 % 0 in
22:57 40.5 °F 33.8 °F 30.1 in WNW 1 mph 6 mph 77 % 0 in
23:02 40.3 °F 33.6 °F 30.1 in NW 1 mph 6 mph 77 % 0 in
23:12 40.5 °F 33.8 °F 30.1 in NNW 2 mph 6 mph 77 % 0 in
23:17 40.5 °F 33.8 °F 30.1 in WNW 2 mph 4 mph 77 % 0 in
23:22 40.3 °F 33.6 °F 30.1 in NW 1 mph 5 mph 77 % 0 in
23:32 39.9 °F 33.6 °F 30.1 in NW 1 mph 5 mph 78 % 0 in
23:37 39.7 °F 33.4 °F 30.1 in WNW 4 mph 4 mph 78 % 0 in
23:42 39.6 °F 33.3 °F 30.1 in WNW 1 mph 2 mph 78 % 0 in
23:52 39.4 °F 33.1 °F 30.1 in WNW 3 mph 4 mph 78 % 0 in
23:57 39.6 °F 32.9 °F 30.1 in WNW 5 mph 7 mph 77 % 0 in
Meteo18
Compliments of Weather Underground - 4 mb

Script developed by  Jim McMurry - jmcmurry@mwt.net Adapted for the template by  Wim van der Kuil - Leuven-Template.eu

You find our weather info also at:

European Weather Network

Weather Underground

Equipment we use:

Weather-station
Davis Vue

Weather-program
Meteohub

Weather-server
Raspberry PI 2 B+

Provider
1 and 1

Davis Vue

Meteohub

Raspberry PI 2 B+

1 and 1